Julia — PF5957 — position and weather

sailwx.info

Track history (hours):
 
Tides and Currents Weather Stations Pressure Air Temp Water Temp Dewpoint Dewpoint Depression Visibility Wind Speed Wind Dir Waves Ship Positions

Julia

Last reported at 2018-May-26 13:56 UTC. Time now 2018-Jun-18 23:18 UTC.
Position N 52°53' E 005°22'.
Warning: this ship's position is 23 days out of date.

Length 15 m.

Type: Sailing vessel. MMSI: 244180582.

Date/timePositionNaut miles runAvg speedWind from/ knotsBaromVisibWave heightAir tempDewpointWater temp
2018-May-26 13:56N 52°53' E 005°22'0 0.5
2018-May-26 13:30N 52°53' E 005°22'1 1.5
2018-May-26 13:00N 52°52' E 005°21'2 3.5
2018-May-26 12:30N 52°51' E 005°20'2 4.3
2018-May-26 12:00N 52°49' E 005°20'2 4.9
2018-May-26 11:30N 52°46' E 005°19'3 5.9
2018-May-26 11:00N 52°43' E 005°19'1 2.1
2018-May-26 10:29N 52°42' E 005°18'1 1.0
2018-May-26 09:58N 52°42' E 005°17'  
2018-May-21 17:16N 52°42' E 005°17'0 0.0
2018-May-21 16:58N 52°42' E 005°17'0 0.0
2018-May-21 16:28N 52°42' E 005°17'0 0.0
2018-May-21 15:58N 52°42' E 005°17'0 0.0
2018-May-21 15:28N 52°42' E 005°17'0 0.0
2018-May-21 14:58N 52°42' E 005°17'0 0.4
2018-May-21 14:30N 52°42' E 005°17'2 3.7
2018-May-21 14:00N 52°43' E 005°19'3 6.6
2018-May-21 13:30N 52°47' E 005°20'3 6.6
2018-May-21 13:00N 52°50' E 005°20'3 6.8
2018-May-21 12:30N 52°53' E 005°21'0 0.3
2018-May-21 11:59N 52°53' E 005°21'0 0.0
2018-May-21 11:29N 52°53' E 005°21'0 0.0
2018-May-21 10:59N 52°53' E 005°21'2 3.5
2018-May-21 10:30N 52°52' E 005°20'4 7.5
2018-May-21 10:00N 52°48' E 005°20'4 7.5
2018-May-21 09:30N 52°44' E 005°19'3 5.1
2018-May-21 09:00N 52°42' E 005°17'0 0.4
2018-May-21 08:28N 52°42' E 005°17'0 0.0
2018-May-21 08:00N 52°42' E 005°17'0 0.0
2018-May-20 16:21N 52°42' E 005°17'0 0.0
2018-May-20 16:00N 52°42' E 005°17'0 0.0
2018-May-20 15:30N 52°42' E 005°17'0 0.2
2018-May-20 15:00N 52°42' E 005°17'2 3.6
2018-May-20 14:30N 52°43' E 005°20'4 7.9
2018-May-20 14:00N 52°45' E 005°25'1 1.4
2018-May-20 13:30N 52°45' E 005°26'4 7.3
2018-May-20 13:00N 52°43' E 005°22'3 5.6
2018-May-20 12:30N 52°42' E 005°17'0 0.0
2018-May-19 17:42N 52°42' E 005°17'0 0.0
2018-May-19 17:30N 52°42' E 005°17'1 1.5
2018-May-19 17:00N 52°41' E 005°17'3 5.4
2018-May-19 16:30N 52°39' E 005°14'3 5.5
2018-May-19 16:00N 52°38' E 005°11'3 5.0
2018-May-19 15:30N 52°37' E 005°07'1 2.4
2018-May-19 14:58N 52°38' E 005°05'1 1.7
2018-May-19 14:29N 52°38' E 005°04'0 0.0
2018-May-19 13:59N 52°38' E 005°04'0 0.0
2018-May-19 13:29N 52°38' E 005°04'0 0.5
2018-May-19 13:00N 52°38' E 005°04'1 2.3
2018-May-19 12:30N 52°38' E 005°05'1 3.0
2018-May-19 12:00N 52°37' E 005°08'2 3.9
2018-May-19 11:30N 52°36' E 005°10'2 3.1
2018-May-19 11:00N 52°37' E 005°13'2 4.1
2018-May-19 10:30N 52°38' E 005°14'2 3.8
2018-May-19 10:00N 52°40' E 005°16'2 3.7
2018-May-19 09:30N 52°41' E 005°18'0 0.9
2018-May-19 09:00N 52°42' E 005°18'0 0.5
2018-May-19 08:29N 52°42' E 005°17'0 0.0
2018-May-19 07:59N 52°42' E 005°17'0 0.0
2018-May-19 07:29N 52°42' E 005°17'0 0.0
2018-May-19 06:59N 52°42' E 005°17'  
Track history (hours):
 
Tides and Currents Weather Stations Pressure Air Temp Water Temp Dewpoint Dewpoint Depression Visibility Wind Speed Wind Dir Waves Ship Positions

Julia

Last reported at 2018-May-26 13:56 UTC. Time now 2018-Jun-18 23:18 UTC.
Position N 52°53' E 005°22'.
Warning: this ship's position is 23 days out of date.

Length 15 m.

Type: Sailing vessel. MMSI: 244180582.

Date/timePositionNaut miles runAvg speedWind from/ knotsBaromVisibWave heightAir tempDewpointWater temp
2018-May-26 13:56N 52°53' E 005°22'0 0.5
2018-May-26 13:30N 52°53' E 005°22'1 1.5
2018-May-26 13:00N 52°52' E 005°21'2 3.5
2018-May-26 12:30N 52°51' E 005°20'2 4.3
2018-May-26 12:00N 52°49' E 005°20'2 4.9
2018-May-26 11:30N 52°46' E 005°19'3 5.9
2018-May-26 11:00N 52°43' E 005°19'1 2.1
2018-May-26 10:29N 52°42' E 005°18'1 1.0
2018-May-26 09:58N 52°42' E 005°17'  
2018-May-21 17:16N 52°42' E 005°17'0 0.0
2018-May-21 16:58N 52°42' E 005°17'0 0.0
2018-May-21 16:28N 52°42' E 005°17'0 0.0
2018-May-21 15:58N 52°42' E 005°17'0 0.0
2018-May-21 15:28N 52°42' E 005°17'0 0.0
2018-May-21 14:58N 52°42' E 005°17'0 0.4
2018-May-21 14:30N 52°42' E 005°17'2 3.7
2018-May-21 14:00N 52°43' E 005°19'3 6.6
2018-May-21 13:30N 52°47' E 005°20'3 6.6
2018-May-21 13:00N 52°50' E 005°20'3 6.8
2018-May-21 12:30N 52°53' E 005°21'0 0.3
2018-May-21 11:59N 52°53' E 005°21'0 0.0
2018-May-21 11:29N 52°53' E 005°21'0 0.0
2018-May-21 10:59N 52°53' E 005°21'2 3.5
2018-May-21 10:30N 52°52' E 005°20'4 7.5
2018-May-21 10:00N 52°48' E 005°20'4 7.5
2018-May-21 09:30N 52°44' E 005°19'3 5.1
2018-May-21 09:00N 52°42' E 005°17'0 0.4
2018-May-21 08:28N 52°42' E 005°17'0 0.0
2018-May-21 08:00N 52°42' E 005°17'0 0.0
2018-May-20 16:21N 52°42' E 005°17'0 0.0
2018-May-20 16:00N 52°42' E 005°17'0 0.0
2018-May-20 15:30N 52°42' E 005°17'0 0.2
2018-May-20 15:00N 52°42' E 005°17'2 3.6
2018-May-20 14:30N 52°43' E 005°20'4 7.9
2018-May-20 14:00N 52°45' E 005°25'1 1.4
2018-May-20 13:30N 52°45' E 005°26'4 7.3
2018-May-20 13:00N 52°43' E 005°22'3 5.6
2018-May-20 12:30N 52°42' E 005°17'0 0.0
2018-May-19 17:42N 52°42' E 005°17'0 0.0
2018-May-19 17:30N 52°42' E 005°17'1 1.5
2018-May-19 17:00N 52°41' E 005°17'3 5.4
2018-May-19 16:30N 52°39' E 005°14'3 5.5
2018-May-19 16:00N 52°38' E 005°11'3 5.0
2018-May-19 15:30N 52°37' E 005°07'1 2.4
2018-May-19 14:58N 52°38' E 005°05'1 1.7
2018-May-19 14:29N 52°38' E 005°04'0 0.0
2018-May-19 13:59N 52°38' E 005°04'0 0.0
2018-May-19 13:29N 52°38' E 005°04'0 0.5
2018-May-19 13:00N 52°38' E 005°04'1 2.3
2018-May-19 12:30N 52°38' E 005°05'1 3.0
2018-May-19 12:00N 52°37' E 005°08'2 3.9
2018-May-19 11:30N 52°36' E 005°10'2 3.1
2018-May-19 11:00N 52°37' E 005°13'2 4.1
2018-May-19 10:30N 52°38' E 005°14'2 3.8
2018-May-19 10:00N 52°40' E 005°16'2 3.7
2018-May-19 09:30N 52°41' E 005°18'0 0.9
2018-May-19 09:00N 52°42' E 005°18'0 0.5
2018-May-19 08:29N 52°42' E 005°17'0 0.0
2018-May-19 07:59N 52°42' E 005°17'0 0.0
2018-May-19 07:29N 52°42' E 005°17'0 0.0
2018-May-19 06:59N 52°42' E 005°17'  

Dump ship's entire track history